Shepperton, United Kingdom
Current Conditions -  °F | °C
As of 10:50 AM on Thursday 23 Oct 2014 (Local Time) from EGLL Reporting Station
Scattered Clouds Scattered Clouds  
Wind Chill: 59°   Ceiling: Unl
Heat Index: 59°   Visibility: 6mi
Dew Point: 50°   Wind: 12mph
Humidity: 72%   Direction: 220°SW
Pressure: 30.12"   Gusts: NA
Location:  51.4°N, 0.45°W
Report Text: EGLL 230950Z 22010KT 9999 FEW020 SCT038 15/10 Q1020 NOSIG
Loading
Personal Weather Stations






























Interactive Weather Map
Tropical Storm Tracking
New forecast layout! Learn more

10-Day Weather Forecast

Advertisements
Track Severe Weather on mobile